Chicago, IL (60601)

2:35 PM CDT on April 27, 2017 (GMT -0500)
Lakeshore East | | Change Station

Elev 600 ft 41.89 °N, 87.62 °W | Updated 14 seconds ago

Overcast
Overcast
48.4 °F
Feels Like 48 °F
N
2.0
Wind Variable Wind from NNE

Today
High -- | Low -- °F
--% Chance of Precip.
Yesterday
High -- | Low -- °F
Precip. -- in
Pressure 29.65 in
Visibility 10.0 miles
Clouds Mostly Cloudy 1900 ft
Overcast 2300 ft
Windchill 48 °F
Dew Point 39 °F
Humidity 70%
Rainfall 0.00 in
Snow Depth Not available.
5:51 AM 7:45 PM
Waxing Crescent, 3% visible
METAR KMDW 271853Z 24016G23KT 10SM BKN019 OVC023 08/04 A2964 RMK AO2 SLP038 T00780039
Pressure 29.65 in
Visibility 10.0 miles
Clouds Mostly Cloudy 1900 ft
Overcast 2300 ft
Windchill 48 °F
Dew Point 39 °F
Humidity 70%
Rainfall 0.00 in
Snow Depth Not available.
5:51 AM 7:45 PM
Waxing Crescent, 3% visible
METAR KMDW 271853Z 24016G23KT 10SM BKN019 OVC023 08/04 A2964 RMK AO2 SLP038 T00780039

Get Severe Weather Alerts

Thanks for signing up!

Be on the lookout for a verification email in your inbox.

You'll start receiving the daily forecast at 8 AM.

×

10-Day Weather Forecast

Almanac

Astronomy

Apr. 27, 2017 Rise Set
Actual Time
Civil Twilight
Nautical Twilight
Astronomical Twilight
Moon
Length of Visible Light
Length of Day
Tomorrow will be .
, % of the Moon is Illuminated

Today's Extremes

State Highs State Lows

Community

WunderPhotos

WunderBlog® & News

Nearby

Air Quality

  Air Quality AQ Index Pollutant
Not available.

Snow Depth

Station Depth Elevation

Earthquake Activity

City Distance Mag. Time & Date
Minimum magnitude displayed is 2.5.

Coastal Water Temperatures

Place Temperature

Stations

Nearby Weather Stations

Station Location Temp. Windchill Dew Point Humidity Wind Precip. Elev Updated Type
                   

Watches & Warnings

There are currently no watches in effect.